Strona główna
METAR-TAF:

METAR-TAF

Lotnisko :

Port lotniczy Osijek

Osijek, Chorwacja

Szerokość geograficzna: 45-27N, Długość geograficzna: 018-48E, wysokość: 88 m

Aktualna obserwacja pogody

Raport powstał 25 minut temu, godzina 12:00 UTC
Wiatr 2 kt z kierunków zmiennych
Temperatura 15°C
Wilgotność 31%
Ciśnienie 1013 hPa
Widzialność 10 km lub więcej
Brak chmur poniżej 1500 m i brak chmur cumulonimbus

METAR: LDOS 031200Z VRB02KT CAVOK 15/M02 Q1013

czas: 14:25 (12:25 UTC)

Prognoza

Raport powstał 1 godzina i 0 minut temu, godzina 11:25 UTC
Prognoza ważna od 03 godzina 12 UTC do 04 godzina 12 UTC
Wiatr 6 kt od północ
Widzialność 10 km lub więcej
Brak chmur poniżej 1500 m i brak chmur cumulonimbus

TAF: LDOS 031125Z 0312/0412 35006KT CAVOK TX17/0313Z TN01/0404Z

Obserwacja i prognoza pogody dla ponad 4000 lotnisk (raport METAR i TAF).

Dostępne stacje oznaczono żółtymi i czerwonymi punktami na mapie.

Najedź kursorem aby zobaczyć nazwę stacji.

Kliknij aby zobaczyć obserwacje i prognozy pogody.

Aby zmienić mapę: kliknij na zielony przycisk z czarnym krzyżykiem, aby powiększyć; na zielony przycisk z myślnikiem, aby pomniejszyć; na zielone strzałki, aby przejść do map sąsiednich.


METAR-TAF: